createdAt,value
2018-12-05T00:03:00.563Z,11.27
2018-12-05T00:08:06.826Z,10.00
2018-12-05T00:13:10.794Z,9.13
2018-12-05T00:18:14.203Z,10.13
2018-12-05T00:23:17.529Z,9.13
2018-12-05T00:28:24.806Z,7.75
2018-12-05T00:33:28.214Z,7.70
2018-12-05T00:38:34.323Z,8.03
2018-12-05T00:43:37.766Z,8.55
2018-12-05T00:48:41.123Z,8.10
2018-12-05T00:53:45.585Z,8.50
2018-12-05T00:58:48.927Z,8.40
2018-12-05T01:03:52.590Z,8.90
2018-12-05T01:08:55.943Z,7.97
2018-12-05T01:13:59.315Z,7.60
2018-12-05T01:19:02.863Z,8.10
2018-12-05T01:24:06.277Z,8.68
2018-12-05T01:29:09.649Z,8.40
2018-12-05T01:34:13.113Z,8.80
2018-12-05T01:39:16.572Z,7.97
2018-12-05T01:44:20.027Z,8.30
2018-12-05T01:49:23.401Z,8.60
2018-12-05T01:54:26.705Z,9.63
2018-12-05T01:59:30.116Z,13.25
2018-12-05T02:04:35.270Z,9.20
2018-12-05T02:09:39.124Z,10.18
2018-12-05T02:14:47.347Z,9.00
2018-12-05T02:19:50.732Z,9.08
2018-12-05T02:24:54.305Z,9.20
2018-12-05T02:30:12.084Z,9.85
2018-12-05T02:35:16.412Z,8.13
2018-12-05T02:40:25.707Z,9.13
2018-12-05T02:45:29.880Z,8.03
2018-12-05T02:50:33.572Z,8.35
2018-12-05T02:55:37.058Z,8.18
2018-12-05T03:00:40.506Z,8.45
2018-12-05T03:05:44.100Z,8.58
2018-12-05T03:10:47.564Z,8.93
2018-12-05T03:15:51.567Z,7.60
2018-12-05T03:20:55.531Z,8.23
2018-12-05T03:25:59.507Z,10.10
2018-12-05T03:31:02.832Z,8.45
2018-12-05T03:36:06.324Z,8.13
2018-12-05T03:41:09.780Z,10.18
2018-12-05T03:46:13.125Z,8.88
2018-12-05T03:51:16.669Z,8.17
2018-12-05T03:56:20.272Z,8.10
2018-12-05T04:01:23.696Z,8.55
2018-12-05T04:06:27.245Z,8.50
2018-12-05T04:11:30.829Z,8.00
2018-12-05T04:16:34.114Z,8.08
2018-12-05T04:21:37.532Z,8.43
2018-12-05T04:26:40.969Z,8.95
2018-12-05T04:31:45.366Z,8.85
2018-12-05T04:36:49.845Z,10.08
2018-12-05T04:41:54.926Z,9.80
2018-12-05T04:46:58.295Z,10.00
2018-12-05T04:52:01.688Z,9.83
2018-12-05T04:57:05.275Z,10.40
2018-12-05T05:02:09.662Z,9.20
2018-12-05T05:07:13.069Z,9.53
2018-12-05T05:12:16.432Z,8.70
2018-12-05T09:06:03.570Z,12.07
2018-12-05T09:11:09.028Z,11.83
2018-12-05T09:16:12.515Z,10.20
2018-12-05T09:21:16.778Z,9.70
2018-12-05T09:26:22.261Z,9.58
2018-12-05T09:31:25.909Z,9.70
2018-12-05T09:36:29.192Z,10.40
2018-12-05T09:41:32.500Z,10.48
2018-12-05T09:46:36.025Z,10.08
2018-12-05T09:51:39.663Z,10.68
2018-12-05T09:56:43.203Z,11.13
2018-12-05T10:01:46.640Z,10.82
2018-12-05T10:06:50.667Z,10.10
2018-12-05T10:11:54.118Z,11.38
2018-12-05T10:16:59.596Z,9.40
2018-12-05T10:22:03.662Z,10.20
2018-12-05T10:27:07.677Z,9.88
2018-12-05T10:32:11.094Z,10.43
2018-12-05T10:37:14.830Z,9.80
2018-12-05T10:42:18.255Z,10.25
2018-12-05T10:47:22.259Z,9.60
2018-12-05T10:52:25.764Z,10.00
2018-12-05T10:57:29.395Z,9.70
2018-12-05T11:02:39.178Z,10.80
2018-12-05T11:07:48.016Z,10.90
2018-12-05T11:12:56.802Z,10.60
2018-12-05T11:18:05.514Z,11.10
2018-12-05T11:23:15.750Z,10.77
2018-12-05T11:28:19.818Z,10.10
2018-12-05T11:33:23.959Z,9.95
2018-12-05T11:38:28.644Z,11.00
2018-12-05T11:43:32.155Z,11.43
2018-12-05T11:48:36.066Z,11.05
2018-12-05T11:59:11.134Z,10.58
2018-12-05T12:04:30.199Z,9.98
2018-12-05T12:15:13.497Z,10.00
2018-12-05T12:20:16.874Z,10.48
2018-12-05T12:25:20.432Z,10.25
2018-12-05T12:30:24.605Z,11.15
2018-12-05T12:35:28.012Z,10.60
2018-12-05T12:40:31.427Z,10.80
2018-12-05T12:45:35.624Z,11.60
2018-12-05T12:50:39.088Z,11.45
2018-12-05T12:55:42.663Z,12.05
2018-12-05T13:00:46.012Z,11.28
2018-12-05T13:05:49.264Z,12.10
2018-12-05T13:10:52.553Z,12.00
2018-12-05T13:15:55.874Z,11.70
2018-12-05T13:20:59.132Z,11.90
2018-12-05T13:26:02.436Z,12.10
2018-12-05T13:31:05.936Z,12.03
2018-12-05T13:36:09.349Z,11.50
2018-12-05T13:41:12.618Z,12.03
2018-12-05T13:46:16.002Z,12.20
2018-12-05T13:51:20.428Z,11.22
2018-12-05T13:56:28.103Z,12.00
2018-12-05T14:01:31.387Z,13.22
2018-12-05T14:06:34.657Z,12.33
2018-12-05T14:11:38.044Z,12.35
2018-12-05T14:16:41.383Z,13.18
2018-12-05T14:21:44.780Z,12.07
2018-12-05T14:26:48.100Z,12.63
2018-12-05T14:31:51.422Z,12.98
2018-12-05T14:36:54.914Z,13.20
2018-12-05T14:41:58.267Z,13.75
2018-12-05T14:47:01.626Z,14.68
2018-12-05T14:52:04.943Z,14.90
2018-12-05T14:57:08.302Z,13.58
2018-12-05T15:02:12.273Z,14.20
2018-12-05T15:07:15.577Z,13.33
2018-12-05T15:12:18.971Z,13.90
2018-12-05T15:17:22.751Z,14.43
2018-12-05T15:22:26.413Z,14.78
2018-12-05T15:27:29.759Z,15.65
2018-12-05T15:32:33.394Z,14.50
2018-12-05T15:37:36.739Z,14.63
2018-12-05T15:42:40.064Z,15.20
2018-12-05T15:47:43.493Z,15.80
2018-12-05T15:52:46.828Z,16.02
2018-12-05T15:57:50.456Z,16.45
2018-12-05T16:02:54.794Z,15.58
2018-12-05T16:07:59.087Z,16.20
2018-12-05T16:13:02.615Z,16.60
2018-12-05T16:18:06.058Z,16.80
2018-12-05T16:23:09.376Z,15.80
2018-12-05T16:28:12.622Z,16.52
2018-12-05T16:33:15.943Z,16.32
2018-12-05T16:38:19.182Z,16.75
2018-12-05T16:43:22.508Z,16.42
2018-12-05T16:48:26.920Z,18.05
2018-12-05T16:53:32.017Z,17.17
2018-12-05T16:58:35.336Z,16.67
2018-12-05T17:03:38.766Z,17.92
2018-12-05T17:08:42.115Z,38.90
2018-12-05T17:13:45.516Z,19.20
2018-12-05T17:18:53.940Z,17.48
2018-12-05T17:23:58.134Z,17.05
